Time;durP1;ratioP1;P1;durP2;ratioP2;P2;SDS_P1;SDS_P2;PMS_P1;PMS_P2;Temp;Humidity;BMP_temperature;BMP_pressure;BME280_temperature;BME280_humidity;BME280_pressure;Samples;Min_cycle;Max_cycle;Signal;HPM_P1;HPM_P2
2022/08/23 00:01:42;;;;;;;1.88;1.20;;;22.00;97.00;;;;;;6183650;23;20004;-78
2022/08/23 00:04:22;;;;;;;2.75;1.35;;;22.00;95.70;;;;;;6183429;23;20008;-79
2022/08/23 00:06:49;;;;;;;1.05;1.05;;;21.90;95.00;;;;;;6183326;23;20011;-79
2022/08/23 00:09:16;;;;;;;1.63;0.88;;;22.00;95.00;;;;;;6185058;23;20041;-79
2022/08/23 00:11:45;;;;;;;1.13;1.10;;;22.00;94.60;;;;;;6183570;23;20429;-79
2022/08/23 00:14:24;;;;;;;1.23;1.10;;;21.90;94.10;;;;;;6183505;23;20005;-79
2022/08/23 00:16:50;;;;;;;1.45;1.20;;;21.90;94.20;;;;;;6183063;23;20080;-79
2022/08/23 00:19:21;;;;;;;1.05;1.00;;;21.80;93.90;;;;;;6183263;23;20084;-79
2022/08/23 00:21:47;;;;;;;1.45;1.08;;;21.80;93.80;;;;;;6183410;23;20515;-79
2022/08/23 00:24:15;;;;;;;4.78;1.77;;;21.80;94.70;;;;;;6183030;23;20429;-79
2022/08/23 00:27:14;;;;;;;1.33;1.20;;;21.80;94.50;;;;;;6184882;23;20377;-79
2022/08/23 00:29:46;;;;;;;1.23;1.10;;;21.70;93.80;;;;;;6182939;23;20009;-79
2022/08/23 00:32:15;;;;;;;1.30;1.20;;;21.60;93.30;;;;;;6184891;23;20028;-80
2022/08/23 00:34:41;;;;;;;1.20;0.98;;;21.60;92.80;;;;;;6184843;23;20001;-79
2022/08/23 00:37:08;;;;;;;1.00;1.00;;;21.50;92.10;;;;;;6183194;23;20084;-79
2022/08/23 00:39:34;;;;;;;2.45;1.20;;;21.60;91.90;;;;;;6184801;23;20025;-79
2022/08/23 00:47:38;;;;;;;1.33;1.23;;;21.60;91.40;;;;;;6184781;23;20329;-79
2022/08/23 00:47:43;;;;;;;1.10;1.10;;;21.60;90.90;;;;;;6185007;23;20066;-79
2022/08/23 00:50:24;;;;;;;1.15;1.05;;;21.50;91.00;;;;;;6183078;23;20005;-80
2022/08/23 00:53:21;;;;;;;1.63;1.20;;;21.50;90.50;;;;;;6183048;23;20005;-80
2022/08/23 00:55:51;;;;;;;1.30;0.93;;;21.50;89.70;;;;;;6184585;23;20437;-79
2022/08/23 00:58:19;;;;;;;1.35;1.10;;;21.50;90.00;;;;;;6183012;23;20009;-79
2022/08/23 01:00:46;;;;;;;1.30;1.30;;;21.40;88.70;;;;;;6184600;23;20003;-79
2022/08/23 01:03:13;;;;;;;1.40;1.30;;;21.50;87.70;;;;;;6182885;23;20008;-79
2022/08/23 01:06:17;;;;;;;0.93;0.93;;;21.50;87.40;;;;;;6182774;23;20023;-79
2022/08/23 01:08:50;;;;;;;1.20;1.10;;;21.50;87.80;;;;;;6123713;23;20314;-79
2022/08/23 01:11:26;;;;;;;2.28;1.40;;;21.40;88.30;;;;;;6183970;23;20001;-79
2022/08/23 01:13:59;;;;;;;1.13;1.10;;;21.40;88.30;;;;;;6182986;23;20028;-79
2022/08/23 01:16:36;;;;;;;1.45;1.27;;;21.50;88.00;;;;;;6184403;23;20055;-79
2022/08/23 01:19:11;;;;;;;1.40;1.30;;;21.40;88.30;;;;;;6184301;23;20393;-79
2022/08/23 01:21:45;;;;;;;1.02;1.00;;;21.40;88.80;;;;;;6182666;23;20005;-79
2022/08/23 01:24:12;;;;;;;1.48;1.10;;;21.30;89.20;;;;;;6182587;23;20330;-79
2022/08/23 01:26:41;;;;;;;1.45;0.88;;;21.40;88.40;;;;;;6182763;23;20005;-80
2022/08/23 01:29:07;;;;;;;1.02;1.02;;;21.50;87.30;;;;;;6182511;23;20503;-79
2022/08/23 01:31:34;;;;;;;1.08;1.00;;;21.60;86.50;;;;;;6182852;23;20005;-79
2022/08/23 01:34:05;;;;;;;3.45;0.90;;;21.60;87.40;;;;;;6184204;23;20005;-79
2022/08/23 01:36:31;;;;;;;1.43;1.10;;;21.60;87.10;;;;;;6184391;23;20001;-80
2022/08/23 01:38:57;;;;;;;0.75;0.75;;;21.60;87.40;;;;;;6184022;23;20005;-79
2022/08/23 01:41:23;;;;;;;0.70;0.70;;;21.60;87.30;;;;;;6184461;23;20024;-79
2022/08/23 01:43:49;;;;;;;1.35;0.82;;;21.60;87.80;;;;;;6184093;23;20080;-79
2022/08/23 01:46:21;;;;;;;2.58;1.30;;;21.60;88.70;;;;;;6184038;23;20361;-80
2022/08/23 01:48:50;;;;;;;1.20;1.20;;;21.50;89.40;;;;;;6182300;23;20009;-79
2022/08/23 01:51:18;;;;;;;1.08;1.08;;;21.40;90.00;;;;;;6182472;23;20345;-79
2022/08/23 01:53:45;;;;;;;2.13;1.10;;;21.40;90.50;;;;;;6182513;23;20005;-79
2022/08/23 01:56:12;;;;;;;0.77;0.77;;;21.40;90.80;;;;;;6182583;23;20055;-80
2022/08/23 01:58:38;;;;;;;1.30;1.20;;;21.40;91.00;;;;;;6182139;23;20016;-80
2022/08/23 02:01:04;;;;;;;0.90;0.90;;;21.40;91.10;;;;;;6184054;23;20001;-80
2022/08/23 02:03:32;;;;;;;1.60;0.98;;;21.50;91.40;;;;;;6183993;23;19997;-80
2022/08/23 02:05:58;;;;;;;0.90;0.90;;;21.30;91.70;;;;;;6183761;23;20009;-79
2022/08/23 02:11:13;;;;;;;2.67;0.95;;;21.40;91.50;;;;;;6183934;23;20341;-79
2022/08/23 02:13:43;;;;;;;1.05;0.98;;;21.50;91.50;;;;;;6183818;23;20035;-80
2022/08/23 02:16:11;;;;;;;1.73;0.75;;;21.40;91.40;;;;;;6157205;23;20009;-80
2022/08/23 02:18:37;;;;;;;1.30;1.17;;;21.40;91.20;;;;;;6183929;23;20492;-79
2022/08/23 02:21:03;;;;;;;1.48;0.88;;;21.30;91.20;;;;;;6157366;23;20067;-80
2022/08/23 02:23:30;;;;;;;1.10;1.10;;;21.40;91.30;;;;;;6183563;23;20001;-79
2022/08/23 02:25:56;;;;;;;0.80;0.80;;;21.30;91.10;;;;;;6183918;23;20487;-79
2022/08/23 02:28:23;;;;;;;0.90;0.90;;;21.40;91.50;;;;;;6157040;23;20444;-79
2022/08/23 02:30:51;;;;;;;0.93;0.93;;;21.30;91.30;;;;;;6183670;23;20032;-79
2022/08/23 02:33:17;;;;;;;1.17;1.17;;;21.30;91.10;;;;;;6183709;23;20005;-79
2022/08/23 02:35:43;;;;;;;1.75;1.13;;;21.30;91.20;;;;;;6157140;23;20037;-79
2022/08/23 02:38:11;;;;;;;0.90;0.90;;;21.30;90.90;;;;;;6183519;23;20340;-80
2022/08/23 02:40:38;;;;;;;2.47;1.10;;;21.30;90.80;;;;;;6183645;23;20004;-79
2022/08/23 02:43:05;;;;;;;0.65;0.65;;;21.30;90.40;;;;;;6183474;23;20001;-79
2022/08/23 02:45:32;;;;;;;2.13;0.90;;;21.30;89.70;;;;;;6183411;23;19997;-79
2022/08/23 02:47:58;;;;;;;0.90;0.88;;;21.30;91.00;;;;;;6157149;23;20005;-80
2022/08/23 02:50:25;;;;;;;1.75;1.20;;;21.20;90.00;;;;;;6183690;23;20005;-80
2022/08/23 02:52:53;;;;;;;2.85;1.10;;;21.20;90.00;;;;;;6157251;23;20349;-79
2022/08/23 02:55:19;;;;;;;1.25;1.15;;;21.20;89.40;;;;;;6183244;23;20024;-79
2022/08/23 02:57:45;;;;;;;1.20;1.00;;;21.20;88.60;;;;;;6157041;23;20059;-79
2022/08/23 03:00:12;;;;;;;0.95;0.90;;;21.20;88.50;;;;;;6157239;23;20005;-79
2022/08/23 03:02:38;;;;;;;1.42;1.33;;;21.20;87.70;;;;;;6183504;23;19997;-79
2022/08/23 03:05:05;;;;;;;1.08;0.98;;;21.20;88.10;;;;;;6169066;23;20021;-79
2022/08/23 03:07:31;;;;;;;1.38;1.27;;;21.10;88.10;;;;;;6182154;23;20151;-79
2022/08/23 03:09:57;;;;;;;1.98;1.10;;;21.00;87.80;;;;;;6181910;23;20425;-79
2022/08/23 03:12:23;;;;;;;3.17;1.08;;;21.00;87.50;;;;;;6181893;23;20333;-79
2022/08/23 03:14:52;;;;;;;2.03;1.20;;;20.90;87.50;;;;;;6181902;23;20036;-79
2022/08/23 03:17:18;;;;;;;2.00;1.00;;;20.90;87.00;;;;;;6183691;23;20005;-79
2022/08/23 03:19:44;;;;;;;6.97;0.80;;;20.90;87.20;;;;;;6183526;23;20024;-79
2022/08/23 03:22:10;;;;;;;0.90;0.90;;;20.80;87.70;;;;;;6183449;23;19997;-79
2022/08/23 03:24:36;;;;;;;1.55;1.30;;;20.80;88.60;;;;;;6181808;23;20416;-79
2022/08/23 03:27:03;;;;;;;1.00;1.00;;;20.80;88.10;;;;;;6181847;23;20028;-79
2022/08/23 03:29:30;;;;;;;1.70;1.20;;;20.70;88.10;;;;;;6183352;23;20008;-79
2022/08/23 03:31:57;;;;;;;1.15;1.13;;;20.70;86.80;;;;;;6183582;23;20012;-79
2022/08/23 03:34:23;;;;;;;2.80;1.08;;;20.70;86.80;;;;;;6183802;23;20437;-79
2022/08/23 03:36:49;;;;;;;2.40;1.10;;;20.60;87.00;;;;;;6183604;23;20044;-79
2022/08/23 03:39:15;;;;;;;2.03;1.00;;;20.60;86.70;;;;;;6183744;23;20005;-79
2022/08/23 03:41:40;;;;;;;1.95;1.23;;;20.60;85.20;;;;;;6185303;23;20001;-79
2022/08/23 03:44:06;;;;;;;2.42;1.10;;;20.50;86.10;;;;;;6185179;23;20315;-79
2022/08/23 03:46:32;;;;;;;0.98;0.98;;;20.50;86.80;;;;;;6183686;23;20008;-79
2022/08/23 03:49:00;;;;;;;3.00;0.88;;;20.50;87.30;;;;;;6183538;23;20107;-79
2022/08/23 03:51:28;;;;;;;0.85;0.85;;;20.50;87.70;;;;;;6185182;23;20067;-79
2022/08/23 03:53:55;;;;;;;1.15;0.80;;;20.50;88.10;;;;;;6183369;23;20015;-79
2022/08/23 03:56:31;;;;;;;1.52;1.15;;;20.50;88.10;;;;;;6183708;23;20028;-79
2022/08/23 03:59:01;;;;;;;0.88;0.88;;;20.40;86.70;;;;;;6184967;23;20032;-79
2022/08/23 04:01:27;;;;;;;1.17;1.17;;;20.50;87.30;;;;;;6185030;23;20437;-79
2022/08/23 04:03:53;;;;;;;2.60;1.50;;;20.40;87.00;;;;;;6184846;23;20004;-79
2022/08/23 04:06:19;;;;;;;1.13;1.10;;;20.40;86.70;;;;;;6158462;23;20009;-79
2022/08/23 04:08:46;;;;;;;1.00;1.00;;;20.40;86.10;;;;;;6158519;23;20185;-79
2022/08/23 04:11:13;;;;;;;0.73;0.73;;;20.40;87.10;;;;;;6185093;23;20120;-79
2022/08/23 04:13:39;;;;;;;1.30;1.20;;;20.30;87.80;;;;;;6184947;23;20433;-79
2022/08/23 04:16:06;;;;;;;1.88;1.10;;;20.40;88.00;;;;;;6158341;23;20067;-79
2022/08/23 04:18:32;;;;;;;1.95;1.27;;;20.20;88.70;;;;;;6158619;23;20005;-79
2022/08/23 04:21:07;;;;;;;1.15;0.80;;;20.10;88.20;;;;;;6184976;23;20012;-79
2022/08/23 04:23:33;;;;;;;0.95;0.95;;;20.10;88.20;;;;;;6158249;23;20396;-79
2022/08/23 04:25:59;;;;;;;1.08;1.08;;;20.20;88.30;;;;;;6184512;23;19997;-79
2022/08/23 04:28:24;;;;;;;1.23;1.13;;;20.10;88.50;;;;;;6158364;23;20441;-79
2022/08/23 04:30:50;;;;;;;1.15;0.85;;;20.10;88.70;;;;;;6156314;23;20005;-79
2022/08/23 04:33:20;;;;;;;2.38;1.15;;;20.00;88.50;;;;;;6184536;23;20066;-78
2022/08/23 04:35:45;;;;;;;1.75;1.08;;;20.10;88.50;;;;;;6184634;23;20079;-79
2022/08/23 04:38:11;;;;;;;0.93;0.93;;;20.10;88.90;;;;;;6158269;23;20036;-79
2022/08/23 04:43:21;;;;;;;1.20;1.05;;;20.20;90.10;;;;;;6186424;23;20079;-79
2022/08/23 04:45:47;;;;;;;1.17;1.17;;;20.10;89.40;;;;;;6185535;23;20429;-79
2022/08/23 04:48:13;;;;;;;1.45;1.20;;;20.00;90.20;;;;;;6184714;23;20005;-79
2022/08/23 04:50:42;;;;;;;1.20;1.10;;;20.00;90.50;;;;;;6184788;23;20028;-79
2022/08/23 04:53:08;;;;;;;1.85;0.90;;;20.00;90.30;;;;;;6158357;23;20005;-79
2022/08/23 04:55:35;;;;;;;1.00;1.00;;;20.00;89.90;;;;;;6158314;23;20336;-79
2022/08/23 04:58:01;;;;;;;2.03;1.05;;;20.10;90.00;;;;;;6184499;23;20006;-79
2022/08/23 05:00:26;;;;;;;1.10;1.10;;;20.00;90.00;;;;;;6158223;23;20005;-79
2022/08/23 05:02:52;;;;;;;1.30;1.20;;;20.00;90.20;;;;;;6184908;23;20307;-79
2022/08/23 05:05:19;;;;;;;1.10;1.00;;;19.90;90.50;;;;;;6184451;23;20013;-79
2022/08/23 05:07:45;;;;;;;1.23;1.20;;;19.90;90.60;;;;;;6184813;23;20508;-79
2022/08/23 05:10:12;;;;;;;1.50;1.00;;;19.90;90.80;;;;;;6184886;23;20012;-79
2022/08/23 05:12:39;;;;;;;1.20;1.05;;;19.90;90.90;;;;;;6158084;23;20032;-79
2022/08/23 05:15:05;;;;;;;1.65;1.20;;;20.00;90.50;;;;;;6184327;23;20009;-79
2022/08/23 05:17:31;;;;;;;4.45;1.05;;;20.00;90.70;;;;;;6157971;23;20091;-79
2022/08/23 05:19:56;;;;;;;1.63;1.35;;;20.00;91.00;;;;;;6184563;23;20033;-79
2022/08/23 05:22:22;;;;;;;2.40;1.15;;;19.90;90.70;;;;;;6184748;23;20001;-79
2022/08/23 05:24:48;;;;;;;0.90;0.90;;;19.90;91.20;;;;;;6185938;23;19997;-79
2022/08/23 05:27:14;;;;;;;1.02;1.00;;;19.90;91.30;;;;;;6159626;23;20001;-79
2022/08/23 05:29:39;;;;;;;2.83;1.48;;;20.00;90.90;;;;;;6158622;23;20452;-79
2022/08/23 05:32:06;;;;;;;1.27;1.17;;;20.10;91.40;;;;;;6156834;23;20013;-79
2022/08/23 05:34:31;;;;;;;1.08;1.00;;;20.10;91.40;;;;;;6158915;23;20012;-79
2022/08/23 05:37:00;;;;;;;1.20;1.20;;;20.20;91.20;;;;;;6185685;23;20001;-79
2022/08/23 05:39:26;;;;;;;2.75;1.30;;;20.20;91.10;;;;;;6185868;23;20033;-79
2022/08/23 05:41:51;;;;;;;3.00;1.13;;;20.30;91.20;;;;;;6185932;23;20437;-79
2022/08/23 05:44:17;;;;;;;0.93;0.90;;;20.40;91.40;;;;;;6185818;23;20070;-79
2022/08/23 05:46:44;;;;;;;1.17;1.00;;;20.40;91.50;;;;;;6159305;23;20541;-79
2022/08/23 05:49:09;;;;;;;1.00;1.00;;;20.40;91.70;;;;;;6159009;23;20080;-79
2022/08/23 05:51:35;;;;;;;2.00;1.15;;;20.50;91.10;;;;;;6159189;23;20029;-79
2022/08/23 05:54:05;;;;;;;1.40;1.30;;;20.60;91.20;;;;;;6158963;23;20005;-79
2022/08/23 05:56:37;;;;;;;1.10;1.10;;;20.60;92.40;;;;;;6159088;23;20551;-79
2022/08/23 05:59:06;;;;;;;1.40;1.30;;;20.60;92.90;;;;;;6158940;23;20382;-79
2022/08/23 06:01:33;;;;;;;1.52;1.42;;;20.60;93.80;;;;;;6185367;23;20469;-79
2022/08/23 06:04:01;;;;;;;1.40;1.17;;;20.70;94.70;;;;;;6158916;23;20005;-79
2022/08/23 06:06:27;;;;;;;1.52;1.42;;;20.70;95.20;;;;;;6185622;23;20001;-79
2022/08/23 06:08:53;;;;;;;1.10;1.10;;;20.80;96.30;;;;;;6185481;23;20074;-80
2022/08/23 06:11:24;;;;;;;1.13;1.10;;;20.70;97.00;;;;;;6159295;23;20009;-79
2022/08/23 06:13:53;;;;;;;1.77;1.42;;;20.80;97.10;;;;;;6159191;23;20015;-79
2022/08/23 06:16:22;;;;;;;1.55;1.30;;;20.90;96.50;;;;;;6158990;23;20018;-79
2022/08/23 06:18:48;;;;;;;1.67;1.15;;;21.00;96.40;;;;;;6185391;23;20001;-78
2022/08/23 06:21:15;;;;;;;1.17;1.17;;;21.10;97.00;;;;;;6185648;23;20071;-79
2022/08/23 06:23:42;;;;;;;1.08;1.08;;;21.10;98.10;;;;;;6159144;23;20033;-79
2022/08/23 06:26:12;;;;;;;1.33;1.02;;;21.20;98.80;;;;;;6184799;23;19997;-79
2022/08/23 06:28:42;;;;;;;1.73;1.13;;;21.20;99.70;;;;;;6184726;23;20001;-79
2022/08/23 06:31:08;;;;;;;1.60;1.55;;;21.30;99.90;;;;;;6158794;23;20091;-79
2022/08/23 06:33:34;;;;;;;3.38;1.60;;;21.40;99.90;;;;;;6184587;23;20005;-79
2022/08/23 06:36:03;;;;;;;1.20;1.20;;;21.50;99.90;;;;;;6184591;23;20008;-79
2022/08/23 06:38:30;;;;;;;1.40;1.30;;;21.50;99.90;;;;;;6158262;23;20019;-79
2022/08/23 06:41:01;;;;;;;2.45;1.58;;;21.60;99.90;;;;;;6158991;23;20001;-79
2022/08/23 06:43:27;;;;;;;1.42;1.33;;;21.60;99.90;;;;;;6157678;23;20103;-79
2022/08/23 06:45:53;;;;;;;1.58;1.20;;;21.70;99.90;;;;;;6183680;23;20421;-79
2022/08/23 06:48:18;;;;;;;2.58;1.50;;;21.90;99.90;;;;;;6157575;23;20084;-79
2022/08/23 06:50:45;;;;;;;1.02;1.02;;;22.00;99.90;;;;;;6183927;23;20401;-79
2022/08/23 06:53:11;;;;;;;3.75;1.40;;;22.00;99.90;;;;;;6183553;23;20016;-80
2022/08/23 06:55:37;;;;;;;1.55;1.45;;;22.10;99.90;;;;;;6157562;23;20005;-79
2022/08/23 06:58:03;;;;;;;4.03;1.45;;;22.20;99.90;;;;;;6184038;23;20004;-79
2022/08/23 07:00:29;;;;;;;2.78;1.40;;;22.20;99.90;;;;;;6183523;23;20024;-79
2022/08/23 07:02:54;;;;;;;1.50;1.40;;;22.40;99.90;;;;;;6156961;23;20080;-79
2022/08/23 07:05:20;;;;;;;1.83;1.30;;;22.40;99.90;;;;;;6172660;23;20636;-80
2022/08/23 07:07:49;;;;;;;2.08;1.52;;;22.50;99.90;;;;;;6182062;23;20012;-80
2022/08/23 07:10:15;;;;;;;1.35;1.23;;;22.60;99.90;;;;;;6182815;23;20013;-80
2022/08/23 07:12:41;;;;;;;3.75;1.48;;;22.60;99.90;;;;;;6185910;23;20076;-79
2022/08/23 07:15:08;;;;;;;3.70;1.67;;;22.70;99.90;;;;;;6184005;23;20009;-79
2022/08/23 07:17:34;;;;;;;2.70;1.70;;;22.80;99.90;;;;;;6183749;23;20460;-80
2022/08/23 07:20:00;;;;;;;3.97;1.33;;;22.80;99.90;;;;;;6184081;23;20001;-80
2022/08/23 07:22:25;;;;;;;2.92;1.30;;;22.80;99.90;;;;;;6184308;23;20019;-80
2022/08/23 07:24:51;;;;;;;1.65;1.55;;;22.90;99.90;;;;;;6186285;23;20459;-79
2022/08/23 07:27:17;;;;;;;1.92;1.50;;;23.00;99.90;;;;;;6187121;23;20028;-79
2022/08/23 07:29:43;;;;;;;1.60;1.50;;;23.00;99.90;;;;;;6185233;23;20008;-79
2022/08/23 07:32:09;;;;;;;2.10;1.60;;;23.10;99.90;;;;;;6185377;23;20005;-80
2022/08/23 07:34:34;;;;;;;1.77;1.55;;;23.10;99.90;;;;;;6185340;23;20392;-80
2022/08/23 07:37:00;;;;;;;2.13;1.70;;;23.20;99.90;;;;;;6185170;23;20641;-80
2022/08/23 07:39:26;;;;;;;3.75;1.42;;;23.30;99.90;;;;;;6185090;23;20087;-79
2022/08/23 07:41:52;;;;;;;1.70;1.60;;;23.40;99.90;;;;;;6185287;23;20028;-79
2022/08/23 07:44:19;;;;;;;5.88;2.10;;;23.40;99.90;;;;;;6184407;23;20009;-79
2022/08/23 07:46:46;;;;;;;1.75;1.25;;;23.40;99.90;;;;;;6184631;23;20079;-79
2022/08/23 07:49:12;;;;;;;2.70;1.45;;;23.50;99.90;;;;;;6186506;23;20005;-79
2022/08/23 07:51:41;;;;;;;3.28;1.88;;;23.50;99.90;;;;;;6185783;23;20005;-79
2022/08/23 07:54:08;;;;;;;2.08;1.20;;;23.70;99.90;;;;;;6186451;23;20039;-80
2022/08/23 07:56:35;;;;;;;1.58;1.48;;;23.70;99.90;;;;;;6186525;23;20028;-80
2022/08/23 07:59:01;;;;;;;3.83;2.13;;;23.80;99.90;;;;;;6183976;23;20008;-79
2022/08/23 08:01:28;;;;;;;3.60;1.60;;;23.80;99.90;;;;;;6184254;23;20313;-79
2022/08/23 08:03:57;;;;;;;2.13;1.20;;;23.90;99.90;;;;;;6183773;23;20076;-80
2022/08/23 08:06:30;;;;;;;1.30;1.20;;;23.80;99.90;;;;;;6159296;23;20059;-79
2022/08/23 08:08:58;;;;;;;1.35;1.00;;;23.90;99.90;;;;;;6185670;23;20441;-79
2022/08/23 08:11:26;;;;;;;2.10;1.38;;;24.00;99.90;;;;;;6159202;23;20506;-79
2022/08/23 08:13:53;;;;;;;1.58;1.42;;;24.00;99.90;;;;;;6159104;23;20029;-79
2022/08/23 08:16:28;;;;;;;1.20;1.20;;;24.00;99.90;;;;;;6158798;23;20015;-80
2022/08/23 08:18:55;;;;;;;1.40;1.30;;;24.00;99.90;;;;;;6159162;23;20011;-80
2022/08/23 08:21:21;;;;;;;1.75;1.20;;;24.10;99.90;;;;;;6159495;23;20009;-80
2022/08/23 08:23:47;;;;;;;1.48;1.25;;;24.10;99.90;;;;;;6186080;23;20000;-80
2022/08/23 08:26:15;;;;;;;2.40;1.80;;;24.10;99.90;;;;;;6185965;23;20025;-80
2022/08/23 08:28:42;;;;;;;2.22;1.33;;;24.10;99.90;;;;;;6184627;23;20005;-80
2022/08/23 08:31:08;;;;;;;3.33;1.30;;;24.10;99.90;;;;;;6159778;23;20449;-80
2022/08/23 08:33:35;;;;;;;1.88;1.38;;;24.20;99.90;;;;;;6159451;23;20005;-80
2022/08/23 08:36:01;;;;;;;1.60;1.50;;;24.20;99.90;;;;;;6159781;23;20628;-80
2022/08/23 08:38:27;;;;;;;2.08;1.23;;;24.20;99.90;;;;;;6159602;23;20005;-79
2022/08/23 08:41:15;;;;;;;1.35;0.90;;;24.40;99.90;;;;;;6186037;23;19997;-80
2022/08/23 08:44:12;;;;;;;1.30;1.10;;;24.40;99.90;;;;;;6186262;23;20012;-79
2022/08/23 08:46:45;;;;;;;5.70;1.42;;;24.40;99.90;;;;;;6159421;23;20029;-79
2022/08/23 08:49:27;;;;;;;1.10;1.10;;;24.50;99.90;;;;;;6159692;23;20012;-79
2022/08/23 08:52:06;;;;;;;1.42;1.33;;;24.60;99.90;;;;;;6159666;23;19998;-79
2022/08/23 08:54:32;;;;;;;4.00;1.42;;;24.60;99.90;;;;;;6159700;23;20016;-79
2022/08/23 08:57:00;;;;;;;3.13;1.80;;;24.80;99.90;;;;;;6159539;23;20362;-79
2022/08/23 08:59:55;;;;;;;1.90;1.40;;;24.70;99.90;;;;;;6186065;23;20005;-79
2022/08/23 09:02:30;;;;;;;1.58;1.48;;;24.70;99.90;;;;;;6173679;23;20001;-79
2022/08/23 09:04:57;;;;;;;1.75;1.65;;;24.80;99.90;;;;;;6169959;23;20016;-79
2022/08/23 09:07:25;;;;;;;1.67;1.58;;;24.80;99.90;;;;;;6184199;23;20024;-79
2022/08/23 09:10:40;;;;;;;1.85;1.55;;;24.90;99.90;;;;;;6184187;23;20012;-79
2022/08/23 09:13:08;;;;;;;1.15;1.10;;;24.90;99.90;;;;;;6153240;23;20076;-80
2022/08/23 09:15:56;;;;;;;3.22;1.55;;;24.80;99.90;;;;;;6184479;23;20303;-79
2022/08/23 09:18:23;;;;;;;2.65;1.30;;;24.80;99.90;;;;;;6184402;23;20060;-79
2022/08/23 09:20:52;;;;;;;1.67;1.20;;;24.80;99.90;;;;;;6185528;23;20024;-80
2022/08/23 09:23:30;;;;;;;4.30;1.80;;;24.90;99.90;;;;;;6182825;23;20008;-79
2022/08/23 09:25:59;;;;;;;1.98;1.80;;;25.00;99.90;;;;;;6182679;23;20377;-79
2022/08/23 09:28:26;;;;;;;1.30;1.20;;;25.10;99.90;;;;;;6184869;23;20011;-82
2022/08/23 09:30:54;;;;;;;3.60;1.75;;;25.20;99.90;;;;;;6185766;23;20005;-82
2022/08/23 09:33:26;;;;;;;1.52;1.33;;;25.10;99.90;;;;;;6185202;23;20076;-79
2022/08/23 09:36:21;;;;;;;2.85;1.63;;;25.20;99.90;;;;;;6185294;23;20447;-80
2022/08/23 09:38:56;;;;;;;2.80;1.55;;;25.30;99.90;;;;;;6180475;23;20016;-79
2022/08/23 09:41:42;;;;;;;2.63;2.22;;;25.40;99.90;;;;;;6184120;23;20001;-81
2022/08/23 09:44:12;;;;;;;2.90;1.60;;;25.50;99.90;;;;;;6184253;23;20084;-81
2022/08/23 09:46:43;;;;;;;7.80;1.40;;;25.50;99.90;;;;;;6185773;23;20044;-82
2022/08/23 09:49:29;;;;;;;4.80;1.77;;;25.50;99.90;;;;;;6185878;23;20005;-79
2022/08/23 09:51:59;;;;;;;1.88;1.40;;;25.60;99.90;;;;;;6184007;23;20008;-79
2022/08/23 09:54:32;;;;;;;1.75;1.55;;;25.70;99.90;;;;;;6182343;23;20001;-79
2022/08/23 09:57:01;;;;;;;1.63;1.52;;;25.70;99.90;;;;;;6180218;23;20013;-78
2022/08/23 09:59:44;;;;;;;1.80;1.42;;;25.90;99.90;;;;;;6179845;23;20004;-79
2022/08/23 10:02:24;;;;;;;1.73;1.63;;;26.00;99.90;;;;;;6183670;23;20009;-80
2022/08/23 10:05:02;;;;;;;4.80;1.42;;;26.00;99.90;;;;;;6183533;23;20032;-80
2022/08/23 10:07:38;;;;;;;1.40;1.30;;;26.00;99.90;;;;;;6183801;23;20005;-79
2022/08/23 10:10:19;;;;;;;2.00;1.90;;;26.10;99.90;;;;;;6184107;23;19997;-76
2022/08/23 10:12:45;;;;;;;1.42;1.33;;;26.00;99.90;;;;;;6185479;23;20001;-77
2022/08/23 10:15:13;;;;;;;1.38;1.27;;;26.10;99.90;;;;;;6185399;23;19997;-77
2022/08/23 10:17:44;;;;;;;2.97;1.80;;;26.20;99.90;;;;;;6185507;23;20463;-76
2022/08/23 10:20:22;;;;;;;4.63;1.73;;;26.30;99.90;;;;;;6183839;23;20533;-77
2022/08/23 10:23:02;;;;;;;1.35;1.20;;;26.30;99.90;;;;;;6184820;23;20318;-80
2022/08/23 10:26:03;;;;;;;3.65;1.85;;;26.40;99.90;;;;;;6183360;23;19997;-80
2022/08/23 10:32:01;;;;;;;1.85;1.20;;;26.60;99.90;;;;;;6179624;23;20020;-80
2022/08/23 10:34:47;;;;;;;3.05;1.35;;;26.60;99.90;;;;;;6178940;23;20084;-80
2022/08/23 10:37:31;;;;;;;1.38;1.38;;;26.70;99.90;;;;;;6178961;23;20011;-80
2022/08/23 10:40:09;;;;;;;2.20;1.50;;;26.80;99.90;;;;;;6178304;23;20051;-79
2022/08/23 10:43:12;;;;;;;3.17;1.58;;;26.80;99.90;;;;;;6178380;23;20008;-81
2022/08/23 10:45:42;;;;;;;2.45;1.45;;;26.90;99.90;;;;;;6058917;23;20007;-80
2022/08/23 10:48:28;;;;;;;4.72;2.47;;;26.90;99.90;;;;;;6150166;23;20001;-80
2022/08/23 10:51:16;;;;;;;1.02;1.02;;;27.00;99.90;;;;;;6179542;23;20080;-80
2022/08/23 10:53:47;;;;;;;5.00;1.58;;;27.10;99.90;;;;;;6176819;23;20005;-80
2022/08/23 10:56:18;;;;;;;1.50;1.40;;;27.20;99.90;;;;;;6178677;23;20005;-80
2022/08/23 10:59:13;;;;;;;4.68;1.45;;;27.30;99.90;;;;;;6183755;23;20001;-76
2022/08/23 11:02:00;;;;;;;1.38;1.23;;;27.20;99.90;;;;;;6183523;23;20004;-77
2022/08/23 11:04:44;;;;;;;1.83;1.27;;;27.40;99.90;;;;;;6183089;23;20013;-76
2022/08/23 11:07:40;;;;;;;2.10;1.35;;;27.50;98.90;;;;;;6183344;23;20027;-77
2022/08/23 11:10:24;;;;;;;1.83;1.25;;;27.50;99.40;;;;;;6153511;23;20012;-77
2022/08/23 11:12:59;;;;;;;1.30;1.13;;;27.70;99.90;;;;;;6183288;23;20437;-76
2022/08/23 11:15:45;;;;;;;1.50;1.40;;;27.70;99.90;;;;;;6183589;23;20076;-76
2022/08/23 11:18:33;;;;;;;2.17;1.35;;;27.80;99.90;;;;;;6178160;23;20001;-77
2022/08/23 11:21:05;;;;;;;1.45;1.35;;;27.90;99.90;;;;;;6133875;23;20059;-76
2022/08/23 11:23:58;;;;;;;1.38;1.15;;;27.80;98.30;;;;;;6151249;23;20001;-76
2022/08/23 11:26:28;;;;;;;3.40;1.30;;;27.90;98.10;;;;;;6152882;23;20083;-76
2022/08/23 11:29:05;;;;;;;1.10;1.10;;;28.00;97.90;;;;;;6178075;23;20015;-76
2022/08/23 11:31:33;;;;;;;1.67;1.58;;;28.10;98.50;;;;;;6151533;23;20071;-76
2022/08/23 11:34:11;;;;;;;1.92;1.10;;;28.20;99.30;;;;;;6177418;23;20005;-76
2022/08/23 11:36:38;;;;;;;0.93;0.93;;;28.20;97.30;;;;;;6177871;23;20033;-76
2022/08/23 11:39:12;;;;;;;1.13;1.02;;;28.30;97.40;;;;;;6155708;23;20005;-76
2022/08/23 11:41:53;;;;;;;1.83;1.73;;;28.30;97.40;;;;;;6183606;23;20019;-76
2022/08/23 11:44:30;;;;;;;1.38;1.23;;;28.40;97.00;;;;;;6183461;23;19997;-76
2022/08/23 11:46:59;;;;;;;1.33;1.20;;;28.50;97.70;;;;;;6157218;23;20001;-76
2022/08/23 11:49:35;;;;;;;2.15;1.30;;;28.50;96.20;;;;;;6183548;23;20008;-76
2022/08/23 11:52:10;;;;;;;2.05;1.48;;;28.60;94.90;;;;;;6183458;23;20005;-76
2022/08/23 11:54:42;;;;;;;1.27;1.17;;;28.70;94.80;;;;;;6183467;23;20032;-76
2022/08/23 11:57:17;;;;;;;;;;;28.70;95.30;;;;;;6185506;23;20410;-77
2022/08/23 12:00:09;;;;;;;5.18;1.33;;;28.80;94.70;;;;;;6185049;23;19908;-76
2022/08/23 12:02:52;;;;;;;1.10;1.08;;;28.90;92.90;;;;;;6158933;23;20068;-76
2022/08/23 12:05:41;;;;;;;1.30;1.20;;;28.90;92.10;;;;;;6167912;23;20024;-76
2022/08/23 12:08:07;;;;;;;2.28;1.30;;;28.90;94.50;;;;;;6125163;23;20005;-76
2022/08/23 12:10:41;;;;;;;1.60;1.17;;;29.00;93.60;;;;;;6179371;23;20059;-77
2022/08/23 12:13:21;;;;;;;1.60;1.30;;;29.10;93.00;;;;;;6179097;23;20008;-75
2022/08/23 12:16:15;;;;;;;2.17;1.20;;;29.20;93.60;;;;;;6179658;23;19997;-76
2022/08/23 12:18:51;;;;;;;2.08;1.45;;;29.10;94.10;;;;;;6178281;23;20041;-76
2022/08/23 12:21:20;;;;;;;2.83;1.10;;;28.90;92.40;;;;;;6180173;23;20001;-76
2022/08/23 12:23:56;;;;;;;1.50;1.40;;;28.80;93.30;;;;;;6180004;23;20024;-76
2022/08/23 12:26:41;;;;;;;1.58;1.17;;;28.90;92.90;;;;;;6177730;23;20005;-76
2022/08/23 12:29:35;;;;;;;1.40;1.33;;;28.80;91.70;;;;;;6179881;23;20005;-76
2022/08/23 12:32:31;;;;;;;1.27;1.17;;;28.80;91.90;;;;;;6178907;23;20452;-76
2022/08/23 12:35:15;;;;;;;3.92;1.30;;;29.00;91.20;;;;;;6178324;23;20016;-76
2022/08/23 12:37:57;;;;;;;1.23;1.10;;;29.10;92.30;;;;;;6177859;23;20012;-76
2022/08/23 12:40:36;;;;;;;1.30;1.20;;;29.30;92.60;;;;;;6177367;23;20426;-76
2022/08/23 12:43:17;;;;;;;2.38;1.30;;;29.30;92.10;;;;;;6178766;23;20055;-76
2022/08/23 12:45:50;;;;;;;2.75;1.10;;;29.40;92.10;;;;;;6177748;23;20064;-76
2022/08/23 12:48:20;;;;;;;1.30;1.10;;;29.60;92.90;;;;;;6179288;23;20001;-76
2022/08/23 12:51:12;;;;;;;2.40;1.20;;;29.70;92.20;;;;;;6180045;23;20005;-76
2022/08/23 12:53:44;;;;;;;1.45;1.35;;;29.70;91.40;;;;;;6173533;23;20099;-76
2022/08/23 12:56:17;;;;;;;1.40;1.30;;;29.70;91.10;;;;;;6177760;23;20015;-76
2022/08/23 12:58:49;;;;;;;3.40;1.00;;;29.80;90.80;;;;;;6178159;23;20015;-76
2022/08/23 13:01:24;;;;;;;1.88;1.23;;;29.90;92.00;;;;;;6178294;23;20005;-76
2022/08/23 13:03:56;;;;;;;1.52;1.30;;;30.00;91.50;;;;;;6179777;23;19993;-77
2022/08/23 13:06:24;;;;;;;;;;;30.00;90.20;;;;;;6153191;23;20460;-76
2022/08/23 13:08:58;;;;;;;1.50;1.40;;;30.00;90.70;;;;;;6178681;23;19900;-76
2022/08/23 13:11:29;;;;;;;1.55;1.00;;;30.00;91.30;;;;;;6179258;23;20059;-76
2022/08/23 13:13:55;;;;;;;3.00;1.85;;;29.90;87.90;;;;;;6178977;23;20008;-77
2022/08/23 13:16:50;;;;;;;1.52;1.42;;;30.10;88.80;;;;;;6178854;23;20005;-76
2022/08/23 13:19:24;;;;;;;2.53;1.67;;;30.20;90.00;;;;;;6177651;23;20013;-76
2022/08/23 13:22:11;;;;;;;1.15;1.15;;;30.40;89.50;;;;;;6179913;23;20133;-76